createdAt,value
2019-01-16T00:04:49.326Z,6.23
2019-01-16T00:10:06.275Z,8.93
2019-01-16T00:15:26.582Z,7.37
2019-01-16T00:20:36.804Z,8.93
2019-01-16T00:25:53.577Z,7.23
2019-01-16T00:31:03.872Z,7.10
2019-01-16T00:36:18.168Z,7.80
2019-01-16T00:41:31.798Z,7.13
2019-01-16T00:46:55.761Z,6.73
2019-01-16T00:52:03.174Z,5.77
2019-01-16T00:57:19.570Z,6.23
2019-01-16T01:02:35.826Z,6.13
2019-01-16T01:07:55.378Z,5.80
2019-01-16T01:13:03.953Z,6.00
2019-01-16T01:18:15.678Z,5.87
2019-01-16T01:23:23.768Z,6.30
2019-01-16T01:28:32.742Z,5.47
2019-01-16T01:33:48.955Z,6.83
2019-01-16T01:39:08.590Z,6.13
2019-01-16T01:44:32.506Z,6.47
2019-01-16T01:49:40.544Z,7.20
2019-01-16T01:54:57.087Z,6.00
2019-01-16T02:00:13.509Z,6.43
2019-01-16T02:05:27.488Z,7.07
2019-01-16T02:10:35.130Z,7.13
2019-01-16T02:15:43.041Z,7.50
2019-01-16T02:20:54.600Z,8.17
2019-01-16T02:26:18.523Z,9.07
2019-01-16T02:31:25.810Z,9.77
2019-01-16T02:36:39.219Z,10.13
2019-01-16T02:47:20.041Z,9.70
2019-01-16T02:52:33.279Z,11.00
2019-01-16T02:57:53.550Z,11.17
2019-01-16T03:03:01.734Z,11.57
2019-01-16T03:08:12.339Z,11.83
2019-01-16T03:13:20.342Z,12.40
2019-01-16T03:18:44.988Z,14.57
2019-01-16T03:23:52.747Z,14.00
2019-01-16T03:29:12.866Z,14.27
2019-01-16T03:34:24.867Z,14.73
2019-01-16T03:39:33.331Z,17.37
2019-01-16T03:44:50.417Z,18.53
2019-01-16T03:50:14.647Z,15.33
2019-01-16T03:55:22.839Z,18.50
2019-01-16T04:00:45.517Z,18.10
2019-01-16T04:06:06.753Z,19.27
2019-01-16T04:11:14.392Z,19.13
2019-01-16T04:16:22.258Z,20.37
2019-01-16T04:21:33.312Z,20.10
2019-01-16T04:26:47.193Z,21.00
2019-01-16T04:31:55.129Z,19.43
2019-01-16T04:37:09.355Z,19.00
2019-01-16T04:42:28.159Z,19.33
2019-01-16T04:47:42.518Z,18.57
2019-01-16T04:52:50.663Z,18.23
2019-01-16T04:57:58.285Z,17.27
2019-01-16T05:03:17.659Z,16.43
2019-01-16T05:08:28.437Z,13.27
2019-01-16T05:13:42.176Z,15.27
2019-01-16T05:19:06.494Z,14.67
2019-01-16T05:24:20.757Z,14.10
2019-01-16T05:29:34.284Z,12.70
2019-01-16T05:34:44.667Z,11.43
2019-01-16T05:40:04.202Z,10.87
2019-01-16T05:45:22.052Z,10.80
2019-01-16T05:50:36.512Z,9.90
2019-01-16T05:55:44.462Z,9.53
2019-01-16T06:01:08.482Z,9.73
2019-01-16T06:06:31.458Z,9.30
2019-01-16T06:11:52.059Z,9.47
2019-01-16T06:17:02.590Z,11.73
2019-01-16T06:22:20.246Z,12.60
2019-01-16T06:27:44.536Z,13.00
2019-01-16T06:33:10.276Z,12.97
2019-01-16T06:38:33.252Z,12.23
2019-01-16T06:43:58.247Z,12.67
2019-01-16T06:49:09.622Z,13.13
2019-01-16T06:54:20.708Z,14.90
2019-01-16T06:59:28.577Z,14.57
2019-01-16T07:04:54.959Z,15.03
2019-01-16T07:10:18.606Z,14.70
2019-01-16T07:15:42.412Z,14.50
2019-01-16T07:21:06.808Z,14.90
2019-01-16T07:26:14.517Z,14.43
2019-01-16T07:31:34.746Z,13.87
2019-01-16T07:36:43.189Z,14.23
2019-01-16T07:42:05.302Z,12.67
2019-01-16T07:47:14.558Z,13.30
2019-01-16T07:52:25.488Z,11.83
2019-01-16T07:57:43.009Z,11.87
2019-01-16T08:03:06.577Z,11.90
2019-01-16T08:08:14.652Z,12.50
2019-01-16T08:13:25.599Z,11.53
2019-01-16T08:18:37.728Z,11.30
2019-01-16T08:24:02.500Z,11.43
2019-01-16T08:29:11.203Z,10.67
2019-01-16T08:34:19.764Z,10.03
2019-01-16T08:39:36.752Z,10.37
2019-01-16T08:44:51.482Z,9.97
2019-01-16T08:50:08.443Z,9.60
2019-01-16T08:55:16.950Z,10.17
2019-01-16T09:00:34.903Z,9.17
2019-01-16T09:05:52.170Z,9.73
2019-01-16T09:11:12.505Z,9.43
2019-01-16T09:16:30.775Z,9.30
2019-01-16T09:21:38.625Z,8.70
2019-01-16T09:26:46.612Z,8.80
2019-01-16T09:32:11.515Z,9.23
2019-01-16T09:37:29.390Z,7.77
2019-01-16T09:42:44.242Z,8.50
2019-01-16T09:48:06.743Z,7.10
2019-01-16T09:53:30.594Z,6.87
2019-01-16T09:58:51.265Z,6.70
2019-01-16T10:04:16.287Z,7.20
2019-01-16T10:09:43.974Z,6.03
2019-01-16T10:14:52.150Z,5.70
2019-01-16T10:20:16.477Z,5.97
2019-01-16T10:25:28.240Z,6.03
2019-01-16T10:30:42.972Z,5.80
2019-01-16T10:35:54.677Z,6.03
2019-01-16T10:41:06.923Z,5.67
2019-01-16T10:46:23.637Z,5.40
2019-01-16T10:51:42.972Z,5.90
2019-01-16T10:56:55.523Z,5.80
2019-01-16T11:02:03.356Z,5.83
2019-01-16T11:07:14.337Z,5.30
2019-01-16T11:12:38.605Z,5.77
2019-01-16T11:18:03.369Z,5.70
2019-01-16T11:23:27.674Z,5.13
2019-01-16T11:28:44.127Z,5.20
2019-01-16T11:34:05.674Z,5.23
2019-01-16T11:39:16.324Z,5.40
2019-01-16T11:44:24.562Z,5.23
2019-01-16T11:49:32.870Z,4.57
2019-01-16T11:54:52.106Z,4.93
2019-01-16T12:00:09.820Z,3.80
2019-01-16T12:05:36.519Z,3.97
2019-01-16T12:10:48.642Z,4.13
2019-01-16T12:16:06.925Z,4.20
2019-01-16T12:21:26.520Z,4.00
2019-01-16T12:26:52.156Z,3.20
2019-01-16T12:32:06.690Z,3.43
2019-01-16T12:37:35.019Z,3.00
2019-01-16T12:42:52.102Z,3.00
2019-01-16T12:48:11.059Z,2.80
2019-01-16T12:53:39.486Z,2.90
2019-01-16T12:59:00.636Z,2.67
2019-01-16T13:04:20.409Z,2.50
2019-01-16T13:09:29.068Z,2.70
2019-01-16T13:14:43.024Z,2.37
2019-01-16T13:19:52.400Z,2.50
2019-01-16T13:25:03.383Z,2.60
2019-01-16T13:30:30.621Z,2.60
2019-01-16T13:35:38.901Z,2.37
2019-01-16T13:41:03.020Z,2.40
2019-01-16T13:46:24.635Z,2.43
2019-01-16T13:51:50.756Z,2.20
2019-01-16T13:57:01.492Z,2.40
2019-01-16T14:02:25.982Z,1.93
2019-01-16T14:07:49.648Z,2.30
2019-01-16T14:13:09.803Z,2.47
2019-01-16T14:18:36.380Z,2.20
2019-01-16T14:23:43.915Z,2.40
2019-01-16T14:29:11.808Z,2.50
2019-01-16T14:34:41.474Z,1.90
2019-01-16T14:39:52.926Z,2.37
2019-01-16T14:45:04.672Z,2.20
2019-01-16T14:50:15.232Z,2.30
2019-01-16T14:55:39.446Z,2.20
2019-01-16T15:01:06.998Z,2.10
2019-01-16T15:06:18.352Z,2.20
2019-01-16T15:11:31.376Z,2.10
2019-01-16T15:16:52.560Z,2.07
2019-01-16T15:22:06.443Z,2.30
2019-01-16T15:27:26.892Z,2.37
2019-01-16T15:32:52.393Z,2.20
2019-01-16T15:38:02.785Z,2.67
2019-01-16T15:43:17.080Z,2.27
2019-01-16T15:48:39.892Z,2.47
2019-01-16T15:54:05.185Z,2.63
2019-01-16T15:59:24.967Z,2.60
2019-01-16T16:04:33.372Z,2.87
2019-01-16T16:09:47.072Z,2.90
2019-01-16T16:14:54.700Z,3.17
2019-01-16T16:20:19.222Z,3.07
2019-01-16T16:25:38.721Z,3.17
2019-01-16T16:31:02.725Z,2.73
2019-01-16T16:36:19.039Z,2.93
2019-01-16T16:41:35.608Z,3.20
2019-01-16T16:46:55.846Z,3.60
2019-01-16T16:52:25.783Z,3.57
2019-01-16T16:57:46.030Z,4.10
2019-01-16T17:02:57.265Z,3.30
2019-01-16T17:08:17.268Z,3.23
2019-01-16T17:13:34.765Z,3.63
2019-01-16T17:18:47.286Z,3.00
2019-01-16T17:24:04.112Z,3.40
2019-01-16T17:29:17.943Z,3.70
2019-01-16T17:34:40.444Z,4.03
2019-01-16T17:39:57.063Z,4.23
2019-01-16T17:45:10.049Z,3.73
2019-01-16T17:50:34.283Z,4.10
2019-01-16T17:55:43.582Z,4.20
2019-01-16T18:00:50.912Z,4.97
2019-01-16T18:05:58.285Z,5.17
2019-01-16T18:11:11.860Z,4.33
2019-01-16T18:16:21.211Z,4.67
2019-01-16T18:21:29.133Z,5.03
2019-01-16T18:26:39.693Z,5.20
2019-01-16T18:31:56.808Z,4.43
2019-01-16T18:37:04.699Z,4.97
2019-01-16T18:42:13.606Z,4.63
2019-01-16T18:47:24.274Z,5.50
2019-01-16T18:52:38.096Z,4.90
2019-01-16T18:57:56.173Z,5.50
2019-01-16T19:03:03.537Z,5.53
2019-01-16T19:08:13.808Z,5.37
2019-01-16T19:13:39.295Z,4.97
2019-01-16T19:19:02.989Z,5.10
2019-01-16T19:24:19.535Z,5.77
2019-01-16T19:29:40.619Z,5.50
2019-01-16T19:35:04.574Z,5.87
2019-01-16T19:40:16.342Z,5.37
2019-01-16T19:45:41.612Z,5.00
2019-01-16T19:50:54.357Z,5.73
2019-01-16T19:56:02.338Z,5.90
2019-01-16T20:01:09.761Z,5.50
2019-01-16T20:06:26.146Z,5.73
2019-01-16T20:11:51.699Z,5.80
2019-01-16T20:17:07.899Z,5.93
2019-01-16T20:22:32.504Z,6.00
2019-01-16T20:27:40.164Z,6.70
2019-01-16T20:32:50.550Z,6.13
2019-01-16T20:37:58.430Z,5.57
2019-01-16T20:43:06.301Z,5.67
2019-01-16T20:48:19.711Z,6.30
2019-01-16T20:53:36.818Z,6.03
2019-01-16T20:58:54.191Z,6.23
2019-01-16T21:04:18.342Z,6.47
2019-01-16T21:09:36.837Z,5.80
2019-01-16T21:14:53.590Z,6.10
2019-01-16T21:20:08.687Z,5.73
2019-01-16T21:25:20.158Z,5.80
2019-01-16T21:30:44.522Z,7.10
2019-01-16T21:36:08.438Z,6.60
2019-01-16T21:41:32.188Z,6.53
2019-01-16T21:46:47.650Z,7.00
2019-01-16T21:52:01.864Z,6.90
2019-01-16T21:57:28.997Z,33.97
2019-01-16T22:02:37.023Z,8.43
2019-01-16T22:07:46.745Z,8.43
2019-01-16T22:13:10.088Z,8.10
2019-01-16T22:18:20.664Z,8.20
2019-01-16T22:23:43.841Z,8.57
2019-01-16T22:28:58.499Z,8.43
2019-01-16T22:34:09.223Z,8.07
2019-01-16T22:39:32.060Z,7.77
2019-01-16T22:44:42.348Z,8.83
2019-01-16T22:49:55.812Z,8.30
2019-01-16T22:55:06.663Z,7.77
2019-01-16T23:00:19.743Z,8.03
2019-01-16T23:05:43.860Z,7.27
2019-01-16T23:11:00.086Z,7.70
2019-01-16T23:16:24.351Z,8.03
2019-01-16T23:21:43.866Z,7.73
2019-01-16T23:27:08.486Z,7.90
2019-01-16T23:32:25.138Z,7.37
2019-01-16T23:37:40.798Z,7.83
2019-01-16T23:43:05.928Z,7.57
2019-01-16T23:48:22.036Z,7.13
2019-01-16T23:53:32.589Z,7.17
2019-01-16T23:58:55.473Z,6.83
